createdAt,value
2017-11-23T00:00:10.801Z,98185.33
2017-11-23T00:02:39.082Z,98171.78
2017-11-23T00:05:08.265Z,98184.42
2017-11-23T00:07:36.546Z,98192.30
2017-11-23T00:10:05.015Z,98180.20
2017-11-23T00:12:33.295Z,98179.30
2017-11-23T00:15:01.593Z,98181.66
2017-11-23T00:17:29.855Z,98179.14
2017-11-23T00:19:58.180Z,98176.38
2017-11-23T00:22:26.474Z,98162.06
2017-11-23T00:24:54.753Z,98173.12
2017-11-23T00:27:23.057Z,98169.16
2017-11-23T00:29:51.341Z,98176.92
2017-11-23T00:32:19.680Z,98173.64
2017-11-23T00:34:47.945Z,98172.45
2017-11-23T00:37:16.216Z,98159.84
2017-11-23T00:39:44.472Z,98166.52
2017-11-23T00:42:12.765Z,98149.30
2017-11-23T00:44:41.018Z,98156.93
2017-11-23T00:47:09.321Z,98152.20
2017-11-23T00:49:37.645Z,98157.72
2017-11-23T00:52:05.939Z,98152.72
2017-11-23T00:54:34.218Z,98147.09
2017-11-23T00:57:02.481Z,98144.05
2017-11-23T00:59:30.760Z,98165.98
2017-11-23T01:01:59.009Z,98151.42
2017-11-23T01:04:28.289Z,98156.55
2017-11-23T01:06:56.626Z,98154.70
2017-11-23T01:09:25.334Z,98149.03
2017-11-23T01:11:53.581Z,98159.68
2017-11-23T01:14:21.853Z,98156.27
2017-11-23T01:16:50.160Z,98170.81
2017-11-23T01:19:18.435Z,98161.39
2017-11-23T01:21:48.632Z,98173.77
2017-11-23T01:24:16.879Z,98160.62
2017-11-23T01:26:45.170Z,98175.99
2017-11-23T01:29:13.426Z,98174.83
2017-11-23T01:31:41.709Z,98179.27
2017-11-23T01:34:09.969Z,98179.55
2017-11-23T01:36:38.240Z,98171.53
2017-11-23T01:39:06.645Z,98169.30
2017-11-23T01:41:34.973Z,98168.89
2017-11-23T01:44:03.251Z,98175.59
2017-11-23T01:46:31.513Z,98161.78
2017-11-23T01:48:59.837Z,98180.47
2017-11-23T01:51:28.100Z,98172.18
2017-11-23T01:53:56.515Z,98169.67
2017-11-23T01:56:24.791Z,98170.75
2017-11-23T01:58:53.757Z,98172.45
2017-11-23T02:01:22.343Z,98177.05
2017-11-23T02:03:50.672Z,98165.85
2017-11-23T02:06:18.940Z,98171.14
2017-11-23T02:08:47.225Z,98166.28
2017-11-23T02:11:15.543Z,98170.48
2017-11-23T02:13:43.821Z,98162.34
2017-11-23T02:16:12.128Z,98166.42
2017-11-23T02:18:40.380Z,98164.56
2017-11-23T02:21:08.782Z,98169.43
2017-11-23T02:23:37.058Z,98159.71
2017-11-23T02:26:05.320Z,98138.53
2017-11-23T02:28:33.661Z,98163.11
2017-11-23T02:31:01.895Z,98161.81
2017-11-23T02:33:30.204Z,98160.22
2017-11-23T02:35:58.462Z,98174.04
2017-11-23T02:38:27.075Z,98163.25
2017-11-23T02:40:55.351Z,98159.58
2017-11-23T02:43:23.619Z,98157.05
2017-11-23T02:45:51.926Z,98147.06
2017-11-23T02:48:20.234Z,98139.14
2017-11-23T02:50:48.495Z,98110.75
2017-11-23T02:53:16.753Z,98135.98
2017-11-23T02:55:45.880Z,98137.97
2017-11-23T02:58:14.158Z,98128.80
2017-11-23T03:00:42.425Z,98138.14
2017-11-23T03:03:10.725Z,98135.37
2017-11-23T03:05:38.988Z,98134.31
2017-11-23T03:08:07.677Z,98131.30
2017-11-23T03:10:35.944Z,98134.72
2017-11-23T03:13:04.198Z,98131.57
2017-11-23T03:15:32.489Z,98129.08
2017-11-23T03:18:00.753Z,98094.66
2017-11-23T03:20:29.054Z,98121.83
2017-11-23T03:22:57.317Z,98113.42
2017-11-23T03:25:25.612Z,98118.83
2017-11-23T03:27:53.872Z,98126.96
2017-11-23T03:30:22.167Z,98115.92
2017-11-23T03:32:50.525Z,98113.81
2017-11-23T03:35:18.946Z,98101.88
2017-11-23T03:37:47.199Z,98113.97
2017-11-23T03:40:15.453Z,98120.00
2017-11-23T03:42:43.736Z,98123.29
2017-11-23T03:45:12.020Z,98115.27
2017-11-23T03:47:40.328Z,98120.92
2017-11-23T03:50:08.776Z,98110.67
2017-11-23T03:52:37.093Z,98111.98
2017-11-23T03:55:05.880Z,98099.12
2017-11-23T03:57:34.189Z,98106.86
2017-11-23T04:00:02.480Z,98106.34
2017-11-23T04:02:30.751Z,98106.87
2017-11-23T04:04:59.140Z,98091.34
2017-11-23T04:07:27.395Z,98100.03
2017-11-23T04:09:55.648Z,98107.23
2017-11-23T04:12:23.941Z,98105.64
2017-11-23T04:14:52.232Z,98094.49
2017-11-23T04:17:20.689Z,98092.03
2017-11-23T04:19:48.948Z,98089.52
2017-11-23T04:22:17.222Z,98095.27
2017-11-23T04:24:45.528Z,98083.45
2017-11-23T04:27:13.811Z,98087.64
2017-11-23T04:29:42.076Z,98082.38
2017-11-23T04:32:10.331Z,98097.88
2017-11-23T04:34:39.581Z,98084.25
2017-11-23T04:37:07.839Z,98079.12
2017-11-23T04:39:36.104Z,98081.48
2017-11-23T04:42:04.950Z,98076.78
2017-11-23T04:44:33.208Z,98077.41
2017-11-23T04:47:01.560Z,98080.55
2017-11-23T04:49:29.815Z,98080.96
2017-11-23T04:51:58.186Z,98085.14
2017-11-23T04:54:31.892Z,98076.34
2017-11-23T04:57:00.157Z,98082.28
2017-11-23T04:59:28.444Z,98074.28
2017-11-23T05:01:57.016Z,98090.95
2017-11-23T05:04:26.203Z,98096.19
2017-11-23T05:06:54.471Z,98091.70
2017-11-23T05:09:22.776Z,98090.81
2017-11-23T05:11:51.087Z,98091.72
2017-11-23T05:14:19.383Z,98097.38
2017-11-23T05:16:47.649Z,98089.87
2017-11-23T05:19:16.301Z,98096.19
2017-11-23T05:21:44.550Z,98096.97
2017-11-23T05:24:12.797Z,98096.85
2017-11-23T05:26:41.082Z,98092.28
2017-11-23T05:29:09.365Z,98089.88
2017-11-23T05:31:37.785Z,98090.13
2017-11-23T05:34:06.016Z,98094.09
2017-11-23T05:36:34.297Z,98094.47
2017-11-23T05:39:02.595Z,98090.81
2017-11-23T05:41:31.272Z,98087.66
2017-11-23T05:43:59.548Z,98092.23
2017-11-23T05:46:27.829Z,98091.85
2017-11-23T05:48:56.105Z,98076.47
2017-11-23T05:51:24.376Z,98076.61
2017-11-23T05:53:52.684Z,98084.62
2017-11-23T05:56:21.010Z,98090.00
2017-11-23T05:58:49.312Z,98082.94
2017-11-23T06:01:17.587Z,98084.50
2017-11-23T06:03:45.881Z,98088.20
2017-11-23T06:06:14.140Z,98084.92
2017-11-23T06:08:42.465Z,98092.81
2017-11-23T06:11:10.721Z,98093.46
2017-11-23T06:13:38.979Z,98103.83
2017-11-23T06:16:07.264Z,98104.62
2017-11-23T06:18:35.548Z,98102.13
2017-11-23T06:21:04.837Z,98103.58
2017-11-23T06:23:33.279Z,98081.59
2017-11-23T06:26:02.022Z,98101.09
2017-11-23T06:28:30.296Z,98106.59
2017-11-23T06:30:58.625Z,98059.55
2017-11-23T06:33:27.010Z,98109.50
2017-11-23T06:35:55.260Z,98114.61
2017-11-23T06:38:23.561Z,98116.73
2017-11-23T06:40:51.950Z,98112.24
2017-11-23T06:43:20.219Z,98110.66
2017-11-23T06:45:48.477Z,98111.73
2017-11-23T06:48:16.786Z,98110.66
2017-11-23T06:50:45.071Z,98108.05
2017-11-23T06:53:13.328Z,98098.70
2017-11-23T06:55:41.669Z,98104.36
2017-11-23T06:58:09.954Z,98106.08
2017-11-23T07:00:38.226Z,98104.75
2017-11-23T07:03:06.595Z,98111.08
2017-11-23T07:05:35.007Z,98118.56
2017-11-23T07:08:03.293Z,98116.86
2017-11-23T07:10:31.575Z,98117.77
2017-11-23T07:12:59.886Z,98099.51
2017-11-23T07:15:28.197Z,98111.19
2017-11-23T07:18:00.322Z,98124.86
2017-11-23T07:20:29.416Z,98109.20
2017-11-23T07:22:57.712Z,98136.13
2017-11-23T07:25:26.020Z,98129.81
2017-11-23T07:27:54.390Z,98138.09
2017-11-23T07:30:22.682Z,98152.66
2017-11-23T07:32:51.468Z,98151.22
2017-11-23T07:35:19.737Z,98155.25
2017-11-23T07:37:48.023Z,98157.47
2017-11-23T07:40:16.338Z,98164.52
2017-11-23T07:42:44.609Z,98162.52
2017-11-23T07:45:12.881Z,98157.48
2017-11-23T07:47:41.195Z,98171.95
2017-11-23T07:50:09.491Z,98166.38
2017-11-23T07:52:37.754Z,98168.62
2017-11-23T07:55:06.068Z,98165.69
2017-11-23T07:57:34.344Z,98162.59
2017-11-23T08:00:02.629Z,98152.70
2017-11-23T08:02:31.122Z,98154.78
2017-11-23T08:04:59.742Z,98155.41
2017-11-23T08:07:28.914Z,98161.59
2017-11-23T08:09:57.175Z,98167.06
2017-11-23T08:12:25.501Z,98168.84
2017-11-23T08:14:54.013Z,98169.61
2017-11-23T08:17:22.301Z,98168.78
2017-11-23T08:19:50.683Z,98171.77
2017-11-23T08:22:18.963Z,98177.63
2017-11-23T08:24:47.291Z,98181.07
2017-11-23T08:27:15.573Z,98186.52
2017-11-23T08:29:43.856Z,98192.45
2017-11-23T08:32:12.222Z,98191.33
2017-11-23T08:34:40.537Z,98193.00
2017-11-23T08:37:08.868Z,98202.58
2017-11-23T08:39:37.154Z,98197.59
2017-11-23T08:42:05.481Z,98204.05
2017-11-23T08:44:33.781Z,98194.99
2017-11-23T08:47:02.081Z,98182.06
2017-11-23T08:49:30.384Z,98192.63
2017-11-23T08:51:58.678Z,98188.13
2017-11-23T08:54:32.881Z,98191.55
2017-11-23T08:57:01.794Z,98194.30
2017-11-23T08:59:30.073Z,98186.86
2017-11-23T09:01:59.279Z,98188.48
2017-11-23T09:04:27.529Z,98192.59
2017-11-23T09:06:55.907Z,98186.43
2017-11-23T09:09:24.206Z,98184.30
2017-11-23T09:11:52.561Z,98164.75
2017-11-23T09:14:20.841Z,98179.21
2017-11-23T09:16:49.118Z,98185.64
2017-11-23T09:19:17.447Z,98179.30
2017-11-23T09:21:46.344Z,98183.47
2017-11-23T09:24:14.632Z,98166.95
2017-11-23T09:26:42.938Z,98170.81
2017-11-23T09:29:11.220Z,98177.55
2017-11-23T09:31:39.524Z,98185.98
2017-11-23T09:34:07.836Z,98189.04
2017-11-23T09:36:36.092Z,98181.71
2017-11-23T09:39:04.358Z,98174.95
2017-11-23T09:41:33.672Z,98167.71
2017-11-23T09:44:01.940Z,98177.33
2017-11-23T09:46:30.237Z,98190.19
2017-11-23T09:48:58.548Z,98188.59
2017-11-23T09:51:26.911Z,98182.80
2017-11-23T09:53:55.212Z,98173.46
2017-11-23T09:56:23.463Z,98182.75
2017-11-23T09:58:51.749Z,98181.19
2017-11-23T10:01:20.008Z,98180.74
2017-11-23T10:03:48.315Z,98167.27
2017-11-23T10:06:16.620Z,98178.66
2017-11-23T10:08:44.925Z,98163.59
2017-11-23T10:11:13.197Z,98194.05
2017-11-23T10:13:41.551Z,98192.83
2017-11-23T10:16:09.921Z,98180.25
2017-11-23T10:18:38.187Z,98199.23
2017-11-23T10:21:06.593Z,98205.18
2017-11-23T10:23:34.865Z,98204.30
2017-11-23T10:26:03.164Z,98199.92
2017-11-23T10:28:31.435Z,98201.00
2017-11-23T10:30:59.737Z,98192.44
2017-11-23T10:33:28.040Z,98211.53
2017-11-23T10:35:58.367Z,98192.97
2017-11-23T10:38:26.654Z,98190.38
2017-11-23T10:40:54.993Z,98194.84
2017-11-23T10:43:23.249Z,98189.23
2017-11-23T10:45:51.533Z,98177.77
2017-11-23T10:48:31.537Z,98184.18
2017-11-23T10:50:59.953Z,98194.90
2017-11-23T10:53:28.191Z,98218.33
2017-11-23T10:55:56.493Z,98204.09
2017-11-23T10:58:25.051Z,98199.77
2017-11-23T11:00:53.357Z,98202.97
2017-11-23T11:03:21.635Z,98183.55
2017-11-23T11:05:49.983Z,98198.45
2017-11-23T11:08:18.281Z,98187.02
2017-11-23T11:10:46.577Z,98178.17
2017-11-23T11:13:14.848Z,98192.81
2017-11-23T11:15:43.156Z,98170.85
2017-11-23T11:18:11.440Z,98188.61
2017-11-23T11:20:39.799Z,98194.87
2017-11-23T11:23:08.096Z,98187.74
2017-11-23T11:25:36.420Z,98188.98
2017-11-23T11:28:04.718Z,98187.34
2017-11-23T11:30:33.017Z,98189.03
2017-11-23T11:33:01.292Z,98190.20
2017-11-23T11:35:29.675Z,98187.17
2017-11-23T11:37:57.907Z,98186.71
2017-11-23T11:40:26.246Z,98167.79
2017-11-23T11:42:54.578Z,98158.83
2017-11-23T11:45:22.889Z,98168.36
2017-11-23T11:47:51.181Z,98176.19
2017-11-23T11:50:19.431Z,98167.56
2017-11-23T11:52:47.756Z,98182.69
2017-11-23T11:55:16.024Z,98185.88
2017-11-23T11:57:44.336Z,98192.30
2017-11-23T12:00:12.631Z,98181.68
2017-11-23T12:02:40.881Z,98183.09
2017-11-23T12:05:09.191Z,98171.83
2017-11-23T12:07:37.541Z,98187.34
2017-11-23T12:10:05.806Z,98169.57
2017-11-23T12:12:34.121Z,98192.75
2017-11-23T12:18:16.042Z,98193.61
2017-11-23T12:20:56.161Z,98181.77
2017-11-23T12:23:36.158Z,98186.80
2017-11-23T12:26:05.312Z,98200.48
2017-11-23T12:28:45.448Z,98194.33
2017-11-23T12:31:13.716Z,98192.99
2017-11-23T12:33:42.021Z,98186.09
2017-11-23T12:36:10.296Z,98192.81
2017-11-23T12:38:38.573Z,98209.12
2017-11-23T12:41:06.876Z,98210.84
2017-11-23T12:43:35.139Z,98213.19
2017-11-23T12:46:03.434Z,98207.72
2017-11-23T12:48:31.719Z,98199.80
2017-11-23T12:50:59.969Z,98192.70
2017-11-23T12:53:28.244Z,98187.45
2017-11-23T12:55:56.508Z,98191.22
2017-11-23T12:58:24.889Z,98200.06
2017-11-23T13:00:53.173Z,98204.91
2017-11-23T13:03:21.543Z,98204.13
2017-11-23T13:05:49.828Z,98194.03
2017-11-23T13:08:18.175Z,98192.77
2017-11-23T13:10:46.487Z,98211.28
2017-11-23T13:13:14.762Z,98180.18
2017-11-23T13:15:43.116Z,98198.97
2017-11-23T13:18:11.425Z,98183.30
2017-11-23T13:20:40.510Z,98191.34
2017-11-23T13:23:08.805Z,98219.05
2017-11-23T13:25:37.173Z,98202.48
2017-11-23T13:28:05.457Z,98203.17
2017-11-23T13:30:33.766Z,98225.53
2017-11-23T13:33:02.009Z,98242.80
2017-11-23T13:35:30.307Z,98243.66
2017-11-23T13:37:58.559Z,98221.95
2017-11-23T13:40:26.845Z,98222.36
2017-11-23T13:42:55.100Z,98236.47
2017-11-23T13:45:23.412Z,98242.27
2017-11-23T13:47:51.721Z,98246.13
2017-11-23T13:50:20.173Z,98245.34
2017-11-23T13:52:48.527Z,98243.77
2017-11-23T13:55:16.760Z,98261.81
2017-11-23T13:57:45.078Z,98248.03
2017-11-23T14:00:13.363Z,98250.05
2017-11-23T14:02:41.714Z,98257.11
2017-11-23T14:05:10.028Z,98261.03
2017-11-23T14:07:38.306Z,98249.04
2017-11-23T14:10:06.654Z,98264.02
2017-11-23T14:12:34.937Z,98272.55
2017-11-23T14:15:03.246Z,98252.95
2017-11-23T14:17:31.542Z,98274.42
2017-11-23T14:19:59.817Z,98266.75
2017-11-23T14:22:28.167Z,98258.76
2017-11-23T14:24:57.199Z,98272.63
2017-11-23T14:27:26.583Z,98269.09
2017-11-23T14:29:54.817Z,98273.80
2017-11-23T14:32:23.133Z,98265.09
2017-11-23T14:34:51.378Z,98273.70
2017-11-23T14:37:19.664Z,98258.14
2017-11-23T14:39:47.944Z,98273.55
2017-11-23T14:42:16.276Z,98288.52
2017-11-23T14:44:44.570Z,98279.70
2017-11-23T14:47:12.875Z,98279.69
2017-11-23T14:49:41.130Z,98273.97
2017-11-23T14:52:09.400Z,98280.78
2017-11-23T14:54:37.785Z,98288.98
2017-11-23T14:57:06.035Z,98282.25
2017-11-23T14:59:34.334Z,98285.09
2017-11-23T15:02:02.611Z,98281.88
2017-11-23T15:04:30.903Z,98294.95
2017-11-23T15:06:59.174Z,98298.88
2017-11-23T15:09:27.442Z,98295.67
2017-11-23T15:11:55.720Z,98293.94
2017-11-23T15:14:23.983Z,98303.05
2017-11-23T15:16:52.277Z,98291.90
2017-11-23T15:19:20.660Z,98293.37
2017-11-23T15:21:48.932Z,98298.24
2017-11-23T15:24:17.301Z,98291.67
2017-11-23T15:26:46.037Z,98324.17
2017-11-23T15:29:14.296Z,98324.42
2017-11-23T15:31:42.611Z,98330.30
2017-11-23T15:34:10.901Z,98333.09
2017-11-23T15:36:39.197Z,98332.17
2017-11-23T15:39:07.492Z,98338.29
2017-11-23T15:41:35.764Z,98345.16
2017-11-23T15:44:04.483Z,98303.25
2017-11-23T15:46:33.731Z,98347.81
2017-11-23T15:49:02.012Z,98343.12
2017-11-23T15:51:33.515Z,98356.50
2017-11-23T15:54:01.836Z,98350.84
2017-11-23T15:56:30.223Z,98355.25
2017-11-23T15:58:58.499Z,98354.86
2017-11-23T16:01:26.834Z,98359.11
2017-11-23T16:03:55.104Z,98363.95
2017-11-23T16:06:23.421Z,98357.58
2017-11-23T16:08:51.698Z,98362.37
2017-11-23T16:11:20.119Z,98362.98
2017-11-23T16:13:48.453Z,98355.44
2017-11-23T16:16:16.744Z,98346.86
2017-11-23T16:18:45.338Z,98364.03
2017-11-23T16:21:13.633Z,98370.09
2017-11-23T16:23:41.956Z,98365.92
2017-11-23T16:26:10.270Z,98376.74
2017-11-23T16:28:39.153Z,98384.17
2017-11-23T16:31:07.437Z,98380.97
2017-11-23T16:33:35.701Z,98380.98
2017-11-23T16:36:04.009Z,98376.76
2017-11-23T16:41:47.662Z,98387.90
2017-11-23T16:47:31.388Z,98397.41
2017-11-23T16:50:06.042Z,98390.95
2017-11-23T16:52:40.147Z,98391.89
2017-11-23T16:55:14.315Z,98404.88
2017-11-23T16:57:43.454Z,98400.86
2017-11-23T17:03:19.524Z,98408.03
2017-11-23T17:05:53.423Z,98407.12
2017-11-23T17:08:21.722Z,98408.09
2017-11-23T17:10:55.470Z,98411.65
2017-11-23T17:13:29.207Z,98418.77
2017-11-23T17:16:02.948Z,98407.52
2017-11-23T17:18:36.765Z,98423.45
2017-11-23T17:21:05.432Z,98431.97
2017-11-23T17:23:33.761Z,98427.69
2017-11-23T17:26:02.049Z,98425.23
2017-11-23T17:28:30.448Z,98436.56
2017-11-23T17:30:58.711Z,98419.73
2017-11-23T17:33:26.968Z,98434.08
2017-11-23T17:35:55.260Z,98436.09
2017-11-23T17:38:23.528Z,98434.30
2017-11-23T17:40:51.838Z,98433.66
2017-11-23T17:43:20.111Z,98437.80
2017-11-23T17:45:48.404Z,98448.19
2017-11-23T17:48:16.673Z,98442.20
2017-11-23T17:50:45.021Z,98447.84
2017-11-23T17:53:13.305Z,98444.23
2017-11-23T17:55:41.603Z,98447.27
2017-11-23T17:58:09.881Z,98457.48
2017-11-23T18:00:38.169Z,98454.80
2017-11-23T18:03:06.478Z,98449.61
2017-11-23T18:05:34.841Z,98442.64
2017-11-23T18:08:04.128Z,98429.94
2017-11-23T18:10:32.419Z,98459.17
2017-11-23T18:13:00.716Z,98466.46
2017-11-23T18:15:28.980Z,98458.20
2017-11-23T18:17:57.269Z,98459.75
2017-11-23T18:20:25.663Z,98457.28
2017-11-23T18:22:53.930Z,98457.52
2017-11-23T18:25:22.244Z,98458.25
2017-11-23T18:27:50.597Z,98434.00
2017-11-23T18:30:18.857Z,98454.00
2017-11-23T18:32:47.187Z,98456.64
2017-11-23T18:35:15.492Z,98458.11
2017-11-23T18:37:43.751Z,98454.74
2017-11-23T18:40:12.016Z,98451.77
2017-11-23T18:42:40.330Z,98459.24
2017-11-23T18:45:08.648Z,98459.02
2017-11-23T18:47:36.920Z,98457.17
2017-11-23T18:50:05.192Z,98463.02
2017-11-23T18:52:33.473Z,98461.26
2017-11-23T18:55:02.542Z,98458.41
2017-11-23T18:57:30.844Z,98455.23
2017-11-23T18:59:59.152Z,98465.48
2017-11-23T19:02:27.415Z,98464.86
2017-11-23T19:04:55.717Z,98471.39
2017-11-23T19:07:24.010Z,98470.60
2017-11-23T19:09:52.293Z,98442.50
2017-11-23T19:12:20.590Z,98464.34
2017-11-23T19:14:48.881Z,98462.63
2017-11-23T19:17:17.196Z,98467.46
2017-11-23T19:19:45.465Z,98476.44
2017-11-23T19:22:13.749Z,98490.96
2017-11-23T19:24:42.004Z,98494.78
2017-11-23T19:27:10.305Z,98511.09
2017-11-23T19:29:38.588Z,98489.77
2017-11-23T19:32:06.885Z,98494.89
2017-11-23T19:34:35.181Z,98504.07
2017-11-23T19:37:03.482Z,98484.14
2017-11-23T19:39:31.712Z,98500.78
2017-11-23T19:42:00.008Z,98489.66
2017-11-23T19:44:28.300Z,98496.00
2017-11-23T19:46:56.589Z,98484.34
2017-11-23T19:49:24.874Z,98501.64
2017-11-23T19:51:53.129Z,98491.64
2017-11-23T19:54:21.442Z,98478.61
2017-11-23T19:56:49.725Z,98487.20
2017-11-23T19:59:18.013Z,98480.94
2017-11-23T20:01:46.322Z,98496.28
2017-11-23T20:04:14.625Z,98502.83
2017-11-23T20:06:43.058Z,98501.75
2017-11-23T20:09:11.368Z,98512.20
2017-11-23T20:11:39.609Z,98505.09
2017-11-23T20:14:07.876Z,98515.63
2017-11-23T20:16:36.200Z,98510.67
2017-11-23T20:19:05.225Z,98520.72
2017-11-23T20:21:33.525Z,98519.22
2017-11-23T20:24:02.140Z,98521.80
2017-11-23T20:26:30.485Z,98519.08
2017-11-23T20:28:58.773Z,98518.38
2017-11-23T20:31:27.052Z,98508.69
2017-11-23T20:33:55.341Z,98512.70
2017-11-23T20:36:23.621Z,98503.70
2017-11-23T20:38:52.043Z,98516.67
2017-11-23T20:41:21.115Z,98531.39
2017-11-23T20:43:49.448Z,98511.20
2017-11-23T20:46:17.709Z,98519.49
2017-11-23T20:48:45.990Z,98536.45
2017-11-23T20:51:14.287Z,98548.24
2017-11-23T20:53:42.545Z,98520.85
2017-11-23T20:56:10.949Z,98537.47
2017-11-23T20:58:39.207Z,98520.58
2017-11-23T21:01:07.905Z,98526.03
2017-11-23T21:03:36.139Z,98528.52
2017-11-23T21:06:05.094Z,98528.47
2017-11-23T21:08:33.345Z,98534.97
2017-11-23T21:11:01.656Z,98531.78
2017-11-23T21:13:29.959Z,98531.92
2017-11-23T21:15:58.270Z,98524.04
2017-11-23T21:18:26.540Z,98539.50
2017-11-23T21:20:54.834Z,98521.59
2017-11-23T21:23:23.129Z,98529.61
2017-11-23T21:25:51.390Z,98524.22
2017-11-23T21:28:19.709Z,98505.25
2017-11-23T21:30:48.323Z,98527.72
2017-11-23T21:33:16.601Z,98529.61
2017-11-23T21:35:44.909Z,98532.50
2017-11-23T21:38:13.224Z,98535.91
2017-11-23T21:40:41.472Z,98545.74
2017-11-23T21:43:09.745Z,98559.02
2017-11-23T21:45:38.034Z,98532.06
2017-11-23T21:48:06.321Z,98535.02
2017-11-23T21:50:34.584Z,98540.58
2017-11-23T21:53:02.863Z,98547.03
2017-11-23T21:55:31.121Z,98549.47
2017-11-23T21:57:59.428Z,98538.49
2017-11-23T22:00:27.724Z,98529.41
2017-11-23T22:02:56.233Z,98534.23
2017-11-23T22:05:24.471Z,98530.26
2017-11-23T22:07:52.772Z,98527.59
2017-11-23T22:10:21.024Z,98538.27
2017-11-23T22:12:49.336Z,98538.18
2017-11-23T22:15:17.640Z,98545.75
2017-11-23T22:17:45.953Z,98553.16
2017-11-23T22:20:14.204Z,98548.11
2017-11-23T22:22:42.482Z,98552.98
2017-11-23T22:25:10.790Z,98559.70
2017-11-23T22:27:39.071Z,98552.04
2017-11-23T22:30:07.476Z,98555.81
2017-11-23T22:32:35.757Z,98555.23
2017-11-23T22:35:04.228Z,98553.90
2017-11-23T22:37:32.514Z,98561.23
2017-11-23T22:40:00.782Z,98563.52
2017-11-23T22:42:29.101Z,98563.03
2017-11-23T22:44:57.454Z,98551.46
2017-11-23T22:47:25.727Z,98562.56
2017-11-23T22:49:54.012Z,98575.22
2017-11-23T22:52:22.287Z,98575.87
2017-11-23T22:54:50.544Z,98559.36
2017-11-23T22:57:18.837Z,98560.42
2017-11-23T22:59:47.096Z,98569.94
2017-11-23T23:02:15.471Z,98543.87
2017-11-23T23:04:43.722Z,98562.09
2017-11-23T23:07:12.821Z,98561.13
2017-11-23T23:09:41.104Z,98554.59
2017-11-23T23:12:09.385Z,98552.39
2017-11-23T23:14:37.670Z,98556.42
2017-11-23T23:17:06.127Z,98555.13
2017-11-23T23:19:34.488Z,98555.67
2017-11-23T23:22:02.770Z,98558.59
2017-11-23T23:24:31.076Z,98557.54
2017-11-23T23:26:59.329Z,98539.28
2017-11-23T23:29:27.646Z,98545.64
2017-11-23T23:31:55.929Z,98540.66
2017-11-23T23:34:24.196Z,98538.61
2017-11-23T23:36:52.552Z,98533.92
2017-11-23T23:39:20.799Z,98530.81
2017-11-23T23:41:49.080Z,98528.67
2017-11-23T23:44:17.376Z,98530.72
2017-11-23T23:46:45.685Z,98530.34
2017-11-23T23:49:13.998Z,98524.56
2017-11-23T23:51:42.284Z,98526.39
2017-11-23T23:54:10.579Z,98534.48
2017-11-23T23:56:38.897Z,98521.33
2017-11-23T23:59:07.252Z,98518.13
